Time;durP1;ratioP1;P1;durP2;ratioP2;P2;SDS_P1;SDS_P2;PMS_P1;PMS_P2;Temp;Humidity;BMP_temperature;BMP_pressure;BME280_temperature;BME280_humidity;BME280_pressure;Samples;Min_cycle;Max_cycle;Signal;HPM_P1;HPM_P2
2022/05/06 00:02:24;;;;;;;16.10;8.80;;;;;;;19.13;53.38;100994.41;5113052;28;20122;-72
2022/05/06 00:04:51;;;;;;;15.75;9.07;;;;;;;19.11;53.48;100991.09;5108003;28;20055;-72
2022/05/06 00:07:19;;;;;;;25.88;10.73;;;;;;;19.07;53.79;100986.41;5101373;28;20043;-71
2022/05/06 00:09:46;;;;;;;18.55;9.45;;;;;;;19.11;53.41;100988.28;5112183;28;20130;-71
2022/05/06 00:12:17;;;;;;;19.00;9.38;;;;;;;18.93;53.42;100958.22;5099880;28;20075;-71
2022/05/06 00:14:45;;;;;;;16.95;9.10;;;;;;;19.11;53.98;100988.28;5108821;28;20542;-69
2022/05/06 00:17:12;;;;;;;17.98;9.55;;;;;;;19.09;54.01;100993.41;5109662;28;20039;-69
2022/05/06 00:19:41;;;;;;;18.98;9.98;;;;;;;18.95;53.92;100970.06;5117047;28;20054;-72
2022/05/06 00:22:10;;;;;;;17.20;10.23;;;;;;;18.83;54.18;100955.69;5102598;28;20131;-73
2022/05/06 00:24:38;;;;;;;14.88;8.75;;;;;;;19.01;53.76;100990.53;5106224;28;20127;-72
2022/05/06 00:27:04;;;;;;;17.73;10.13;;;;;;;18.86;53.99;100969.16;5115350;28;20126;-71
2022/05/06 00:29:31;;;;;;;13.60;9.10;;;;;;;18.56;54.01;100926.41;5123607;27;20074;-70
2022/05/06 00:31:58;;;;;;;13.55;8.55;;;;;;;18.82;53.84;100971.81;5096272;28;20126;-71
2022/05/06 00:34:25;;;;;;;15.63;9.35;;;;;;;18.93;53.67;100995.84;5107627;27;20075;-71
2022/05/06 00:36:52;;;;;;;15.10;8.40;;;;;;;18.89;53.51;100988.34;5111144;28;20082;-70
2022/05/06 00:39:19;;;;;;;15.90;8.35;;;;;;;18.66;54.08;100973.38;5116433;28;20092;-70
2022/05/06 00:41:45;;;;;;;14.15;7.60;;;;;;;18.47;54.30;100951.81;5115773;28;20142;-72
2022/05/06 00:44:13;;;;;;;13.13;7.72;;;;;;;18.58;54.41;100968.50;5112846;28;20134;-71
2022/05/06 00:46:40;;;;;;;13.75;6.80;;;;;;;18.37;54.75;100945.59;5114973;27;20075;-71
2022/05/06 00:49:10;;;;;;;11.65;6.72;;;;;;;18.39;55.06;100954.59;5109550;28;20055;-71
2022/05/06 00:51:39;;;;;;;13.75;7.75;;;;;;;18.35;54.83;100945.09;5107458;28;20044;-71
2022/05/06 00:54:06;;;;;;;14.75;7.15;;;;;;;18.23;54.92;100926.72;5110134;28;20079;-70
2022/05/06 00:56:33;;;;;;;14.43;7.43;;;;;;;18.51;54.58;100968.16;5114415;28;20138;-70
2022/05/06 00:59:00;;;;;;;17.40;8.32;;;;;;;18.36;54.35;100939.13;5110226;28;20142;-72
2022/05/06 01:01:29;;;;;;;11.95;7.88;;;;;;;18.50;54.63;100960.81;5113739;28;20086;-71
2022/05/06 01:03:56;;;;;;;16.55;9.35;;;;;;;18.60;54.46;100958.56;5096013;28;20086;-71
2022/05/06 01:06:24;;;;;;;18.00;9.13;;;;;;;18.53;54.35;100935.56;5109055;28;20044;-71
2022/05/06 01:08:50;;;;;;;15.30;7.90;;;;;;;18.52;54.20;100942.34;5115057;28;20083;-71
2022/05/06 01:11:18;;;;;;;16.40;8.50;;;;;;;18.53;54.36;100951.66;5114345;28;20086;-71
2022/05/06 01:13:47;;;;;;;15.82;9.00;;;;;;;18.56;54.48;100949.03;5109927;28;20058;-71
2022/05/06 01:16:14;;;;;;;16.40;8.10;;;;;;;18.47;54.40;100936.84;5107370;28;20039;-71
2022/05/06 01:18:41;;;;;;;21.83;8.63;;;;;;;18.50;54.33;100944.69;5109822;28;20070;-71
2022/05/06 01:21:12;;;;;;;15.35;9.18;;;;;;;18.51;54.33;100940.69;5111085;27;20127;-71
2022/05/06 01:23:39;;;;;;;13.95;8.90;;;;;;;18.23;54.37;100912.59;5110810;28;20051;-71
2022/05/06 01:26:06;;;;;;;14.90;8.48;;;;;;;18.32;54.46;100915.47;5114173;27;20532;-70
2022/05/06 01:28:37;;;;;;;17.33;9.63;;;;;;;18.50;54.10;100944.69;5111916;28;20126;-74
2022/05/06 01:31:05;;;;;;;15.43;8.63;;;;;;;18.53;53.66;100927.06;5115655;28;20134;-74
2022/05/06 01:33:35;;;;;;;17.63;9.43;;;;;;;18.70;53.63;100937.63;5113783;27;20122;-74
2022/05/06 01:36:04;;;;;;;14.50;9.13;;;;;;;18.74;53.07;100937.84;5110306;28;20056;-74
2022/05/06 01:38:39;;;;;;;16.10;9.93;;;;;;;18.53;52.98;100895.97;5109683;27;20095;-75
2022/05/06 01:41:10;;;;;;;14.50;8.80;;;;;;;18.57;52.98;100887.66;5110686;27;20143;-74
2022/05/06 01:43:42;;;;;;;16.30;9.85;;;;;;;18.81;52.99;100929.72;5111187;27;20122;-73
2022/05/06 01:46:15;;;;;;;16.83;9.23;;;;;;;18.68;52.80;100912.47;5108896;27;20071;-71
2022/05/06 01:48:44;;;;;;;16.23;9.10;;;;;;;18.80;52.96;100925.19;5103792;27;20082;-71
2022/05/06 01:51:14;;;;;;;14.93;8.95;;;;;;;18.68;52.78;100911.66;5112121;28;20154;-70
2022/05/06 01:53:44;;;;;;;;;;;;;;;18.63;52.87;100925.94;5115825;27;20150;-69
2022/05/06 01:56:12;;;;;;;15.38;8.88;;;;;;;18.59;52.77;100910.78;5110740;27;19986;-69
2022/05/06 01:58:39;;;;;;;14.40;8.75;;;;;;;18.62;53.17;100918.63;5113541;28;20092;-68
2022/05/06 02:01:05;;;;;;;17.42;9.68;;;;;;;18.73;53.02;100939.00;5107555;28;20138;-68
2022/05/06 02:06:18;;;;;;;21.35;7.65;;;;;;;18.62;52.69;100918.63;5107913;28;20134;-68
2022/05/06 02:08:44;;;;;;;15.75;7.72;;;;;;;18.67;52.77;100927.81;5108619;27;20047;-68
2022/05/06 02:11:12;;;;;;;15.90;7.70;;;;;;;18.54;52.41;100911.75;5107721;28;20593;-67
2022/05/06 02:13:39;;;;;;;16.73;8.45;;;;;;;18.73;52.63;100936.16;5109912;27;20054;-68
2022/05/06 02:16:07;;;;;;;18.02;8.38;;;;;;;18.70;53.04;100931.97;5108526;27;20075;-68
2022/05/06 02:18:34;;;;;;;12.65;7.90;;;;;;;18.58;52.86;100918.44;5104965;27;20135;-69
2022/05/06 02:21:01;;;;;;;14.93;8.85;;;;;;;18.70;52.58;100931.97;5108227;28;20086;-68
2022/05/06 02:23:28;;;;;;;15.15;8.23;;;;;;;18.69;52.39;100936.78;5110308;27;20134;-69
2022/05/06 02:25:56;;;;;;;12.45;6.95;;;;;;;18.49;52.78;100911.88;5110896;28;20070;-68
2022/05/06 02:28:23;;;;;;;12.52;6.93;;;;;;;18.45;53.11;100925.03;5106403;28;20175;-68
2022/05/06 02:33:35;;;;;;;10.27;6.78;;;;;;;18.17;53.96;100930.84;5110473;28;20191;-68
2022/05/06 02:36:03;;;;;;;13.55;7.10;;;;;;;18.07;53.96;100930.28;5107529;28;20070;-68
2022/05/06 02:38:30;;;;;;;12.43;6.90;;;;;;;17.96;54.39;100932.53;5110736;27;20143;-71
2022/05/06 02:40:57;;;;;;;10.80;6.85;;;;;;;17.87;54.31;100923.16;5111626;28;20127;-70
2022/05/06 02:43:24;;;;;;;10.65;6.40;;;;;;;17.74;54.84;100914.41;5100105;28;20074;-72
2022/05/06 02:45:51;;;;;;;11.07;7.13;;;;;;;17.59;54.62;100903.47;5107647;27;20078;-71
2022/05/06 02:48:18;;;;;;;12.48;7.35;;;;;;;17.63;54.84;100921.44;5106163;28;20043;-71
2022/05/06 02:50:47;;;;;;;12.70;7.25;;;;;;;17.62;55.28;100922.59;5106980;28;20044;-71
2022/05/06 02:53:13;;;;;;;13.48;7.80;;;;;;;17.33;55.12;100876.97;5108780;28;20043;-71
2022/05/06 02:55:41;;;;;;;16.73;6.47;;;;;;;17.58;55.26;100938.50;5104888;28;20071;-72
2022/05/06 02:58:09;;;;;;;10.30;6.88;;;;;;;17.34;55.36;100906.91;5113365;28;20138;-72
2022/05/06 03:00:36;;;;;;;13.02;7.72;;;;;;;17.45;55.89;100936.56;5109605;28;20139;-71
2022/05/06 03:03:04;;;;;;;11.23;6.63;;;;;;;17.45;55.46;100933.72;5105772;28;20063;-72
2022/05/06 03:05:32;;;;;;;18.05;7.57;;;;;;;17.50;55.08;100937.28;5105936;28;20135;-71
2022/05/06 03:07:59;;;;;;;12.35;7.00;;;;;;;17.51;54.72;100924.00;5108125;28;20135;-71
2022/05/06 03:10:25;;;;;;;12.30;7.47;;;;;;;17.60;55.17;100944.66;5102566;28;20186;-69
2022/05/06 03:12:58;;;;;;;11.68;6.95;;;;;;;17.40;54.90;100916.91;5105706;28;20134;-69
2022/05/06 03:15:25;;;;;;;13.32;7.60;;;;;;;17.43;55.39;100933.19;5106063;28;20459;-69
2022/05/06 03:17:52;;;;;;;15.45;8.15;;;;;;;17.22;55.67;100933.66;5134504;27;20047;-70
2022/05/06 03:20:20;;;;;;;13.55;8.52;;;;;;;17.20;55.70;100924.69;5105853;27;20429;-71
2022/05/06 03:22:49;;;;;;;12.77;7.28;;;;;;;17.35;55.64;100948.09;5106895;28;20406;-69
2022/05/06 03:25:17;;;;;;;12.02;7.35;;;;;;;17.37;55.00;100945.78;5111473;28;20078;-69
2022/05/06 03:27:59;;;;;;;12.15;7.55;;;;;;;17.40;55.06;100940.34;5110903;28;20134;-69
2022/05/06 03:30:27;;;;;;;9.95;7.07;;;;;;;17.48;54.92;100948.06;5109454;28;20456;-70
2022/05/06 03:32:55;;;;;;;14.77;7.88;;;;;;;17.46;54.96;100929.75;5110182;28;20079;-72
2022/05/06 03:35:23;;;;;;;13.93;7.18;;;;;;;17.20;54.90;100884.34;5104099;28;20048;-72
2022/05/06 03:37:51;;;;;;;12.23;8.75;;;;;;;17.51;54.53;100938.94;5110117;28;20138;-71
2022/05/06 03:40:18;;;;;;;13.27;8.43;;;;;;;17.40;54.58;100916.91;5102098;28;20123;-71
2022/05/06 03:42:45;;;;;;;11.32;7.00;;;;;;;17.46;54.27;100918.47;5108102;28;20082;-71
2022/05/06 03:45:13;;;;;;;14.98;8.63;;;;;;;17.47;54.59;100925.75;5100957;28;20484;-69
2022/05/06 03:47:40;;;;;;;13.68;8.13;;;;;;;17.30;54.42;100912.34;5108324;28;20165;-68
2022/05/06 03:52:53;;;;;;;11.20;7.03;;;;;;;17.26;55.37;100945.16;5112588;28;20101;-70
2022/05/06 03:55:20;;;;;;;13.07;7.38;;;;;;;16.97;55.24;100911.66;5110193;28;20142;-73
2022/05/06 03:57:47;;;;;;;12.52;7.90;;;;;;;17.02;55.28;100917.19;5110895;28;20143;-73
2022/05/06 04:00:15;;;;;;;15.88;7.43;;;;;;;16.87;55.09;100898.59;5110655;28;20099;-71
2022/05/06 04:02:43;;;;;;;13.88;7.28;;;;;;;17.15;55.18;100938.91;5111420;28;20039;-72
2022/05/06 04:05:10;;;;;;;11.45;6.75;;;;;;;17.14;55.30;100942.06;5110310;28;20044;-71
2022/05/06 04:07:37;;;;;;;11.38;7.10;;;;;;;17.05;55.12;100930.66;5092586;28;20587;-70
2022/05/06 04:10:05;;;;;;;14.23;7.65;;;;;;;17.09;55.50;100934.50;5101355;28;20126;-71
2022/05/06 04:12:32;;;;;;;13.57;7.95;;;;;;;16.87;55.57;100906.25;5111784;28;20079;-71
2022/05/06 04:15:00;;;;;;;14.80;7.53;;;;;;;17.03;55.32;100932.97;5106690;28;20396;-72
2022/05/06 04:17:26;;;;;;;10.73;6.05;;;;;;;17.03;55.36;100942.28;5112426;28;20044;-71
2022/05/06 04:25:24;;;;;;;12.70;6.60;;;;;;;16.93;55.48;100942.50;5110849;28;20068;-71
2022/05/06 04:27:51;;;;;;;15.50;7.80;;;;;;;16.99;55.30;100952.53;5110321;28;20058;-71
2022/05/06 04:30:18;;;;;;;11.30;7.15;;;;;;;16.88;55.40;100933.28;5110771;28;20078;-71
2022/05/06 04:32:45;;;;;;;12.40;8.00;;;;;;;16.93;55.26;100950.13;5111532;28;20078;-71
2022/05/06 04:35:15;;;;;;;11.55;6.93;;;;;;;16.76;55.53;100919.72;5108967;28;20051;-71
2022/05/06 04:37:43;;;;;;;14.55;7.65;;;;;;;16.75;55.50;100916.06;5108049;28;20047;-71
2022/05/06 04:40:11;;;;;;;16.23;7.18;;;;;;;16.84;55.41;100927.44;5141279;27;20160;-70
2022/05/06 04:42:38;;;;;;;13.77;8.10;;;;;;;16.80;55.40;100920.75;5111187;28;20135;-71
2022/05/06 04:45:05;;;;;;;13.90;7.97;;;;;;;16.98;55.60;100944.34;5111348;28;20083;-71
2022/05/06 04:47:34;;;;;;;12.10;7.30;;;;;;;16.83;55.30;100905.19;5105966;28;20079;-71
2022/05/06 04:50:02;;;;;;;14.23;7.70;;;;;;;17.04;55.53;100931.81;5108813;28;20085;-71
2022/05/06 04:52:29;;;;;;;12.52;7.32;;;;;;;17.12;55.25;100944.34;5107607;28;20134;-72
2022/05/06 04:54:56;;;;;;;11.27;7.13;;;;;;;16.99;55.03;100923.44;5110321;28;20506;-70
2022/05/06 04:57:23;;;;;;;12.98;6.78;;;;;;;17.02;55.43;100934.94;5110331;28;20078;-69
2022/05/06 04:59:50;;;;;;;12.60;7.27;;;;;;;16.90;55.33;100911.25;5106073;28;20074;-69
2022/05/06 05:02:17;;;;;;;15.02;7.57;;;;;;;17.02;55.53;100928.47;5110505;27;20047;-69
2022/05/06 05:04:44;;;;;;;12.45;7.68;;;;;;;16.91;55.14;100921.38;5109758;27;20082;-70
2022/05/06 05:07:11;;;;;;;14.10;6.72;;;;;;;16.97;55.62;100937.06;5109661;28;20166;-71
2022/05/06 05:09:38;;;;;;;13.05;8.07;;;;;;;16.93;55.65;100919.91;5102368;28;20126;-70
2022/05/06 05:12:05;;;;;;;16.83;7.75;;;;;;;17.08;55.37;100938.50;5110393;28;20131;-68
2022/05/06 05:14:38;;;;;;;13.02;7.32;;;;;;;17.08;55.38;100932.84;5115706;28;20146;-68
2022/05/06 05:17:05;;;;;;;13.00;7.63;;;;;;;17.08;55.20;100932.84;5105425;28;20048;-69
2022/05/06 05:19:32;;;;;;;14.15;8.45;;;;;;;16.99;55.08;100929.94;5115577;27;20067;-71
2022/05/06 05:21:59;;;;;;;10.33;7.03;;;;;;;16.93;55.41;100936.00;5114002;28;20164;-70
2022/05/06 05:24:26;;;;;;;12.93;7.13;;;;;;;16.72;55.83;100919.47;5111421;27;20105;-71
2022/05/06 05:26:54;;;;;;;14.43;8.38;;;;;;;16.26;56.21;100851.88;5112811;27;20525;-69
2022/05/06 05:29:27;;;;;;;11.70;7.93;;;;;;;16.81;55.83;100934.53;5115141;28;20047;-69
2022/05/06 05:31:55;;;;;;;15.17;8.13;;;;;;;16.86;55.78;100936.44;5108820;28;20052;-68
2022/05/06 05:34:22;;;;;;;13.40;8.27;;;;;;;16.80;55.74;100921.59;5113842;28;20100;-70
2022/05/06 05:36:49;;;;;;;10.83;7.17;;;;;;;16.92;55.19;100935.19;5113782;27;20048;-74
2022/05/06 05:39:16;;;;;;;14.87;8.57;;;;;;;16.91;55.32;100927.84;5112394;28;20078;-71
2022/05/06 05:41:43;;;;;;;15.48;8.75;;;;;;;16.95;55.02;100922.41;5112946;28;20051;-73
2022/05/06 05:49:43;;;;;;;14.70;8.80;;;;;;;16.97;55.01;100931.41;5104563;28;20052;-74
2022/05/06 05:52:11;;;;;;;16.77;10.48;;;;;;;16.98;55.34;100921.78;5094914;27;20075;-71
2022/05/06 05:54:38;;;;;;;13.50;8.65;;;;;;;17.13;55.37;100952.50;5111640;27;20182;-71
2022/05/06 05:57:05;;;;;;;14.75;9.13;;;;;;;17.21;55.10;100954.59;5112280;28;20075;-71
2022/05/06 05:59:33;;;;;;;14.63;9.68;;;;;;;17.29;54.90;100962.28;5115441;27;20085;-70
2022/05/06 06:02:04;;;;;;;12.35;8.55;;;;;;;17.09;55.02;100917.59;5111552;27;20056;-70
2022/05/06 06:04:32;;;;;;;13.90;8.85;;;;;;;17.39;54.91;100949.94;5106723;27;20802;-71
2022/05/06 06:06:59;;;;;;;16.10;8.52;;;;;;;17.53;54.83;100949.91;5108162;27;20083;-71
2022/05/06 06:09:27;;;;;;;16.05;7.90;;;;;;;17.81;54.72;100976.13;5113061;28;20127;-70
2022/05/06 06:11:54;;;;;;;14.05;9.23;;;;;;;17.81;54.86;100956.38;5111086;27;20490;-71
2022/05/06 06:14:22;;;;;;;18.20;9.32;;;;;;;18.05;54.76;100974.97;5112029;28;20138;-71
2022/05/06 06:16:50;;;;;;;15.55;9.48;;;;;;;18.08;54.41;100963.84;5108581;28;20086;-70
2022/05/06 06:19:17;;;;;;;15.35;8.40;;;;;;;18.32;54.49;100985.31;5112668;28;20039;-72
2022/05/06 06:21:44;;;;;;;12.25;7.80;;;;;;;18.41;54.02;100969.25;5114772;28;20134;-73
2022/05/06 06:24:12;;;;;;;14.07;8.38;;;;;;;18.44;53.70;100929.00;5111507;28;20086;-72
2022/05/06 06:26:39;;;;;;;14.65;9.63;;;;;;;18.99;53.18;100985.22;5112331;27;20139;-73
2022/05/06 06:29:07;;;;;;;14.45;8.90;;;;;;;19.17;53.06;100992.59;5112379;27;20490;-71
2022/05/06 06:31:33;;;;;;;14.55;9.02;;;;;;;18.98;52.70;100932.59;5113049;28;20075;-73
2022/05/06 06:34:01;;;;;;;16.92;8.52;;;;;;;19.47;52.47;100975.84;5111755;27;20505;-72
2022/05/06 06:36:28;;;;;;;12.27;8.35;;;;;;;19.59;51.86;100952.56;5112015;28;20513;-73
2022/05/06 06:38:55;;;;;;;12.23;8.30;;;;;;;19.94;51.42;100976.09;5114628;28;20082;-76
2022/05/06 06:41:22;;;;;;;14.32;7.75;;;;;;;19.93;51.25;100945.25;5112828;27;20604;-82
2022/05/06 06:43:49;;;;;;;13.35;8.40;;;;;;;20.27;50.46;100967.03;5112401;27;20127;-73
2022/05/06 06:46:16;;;;;;;10.98;7.20;;;;;;;20.52;50.44;100974.72;5109032;27;20087;-75
2022/05/06 06:48:43;;;;;;;11.80;7.97;;;;;;;20.67;50.14;100981.84;5106541;27;20150;-74
2022/05/06 06:51:10;;;;;;;11.30;7.55;;;;;;;20.68;49.73;100982.66;5107230;28;20135;-74
2022/05/06 06:53:37;;;;;;;13.35;7.22;;;;;;;20.46;49.51;100930.63;5110745;27;20493;-74
2022/05/06 06:56:04;;;;;;;14.30;7.80;;;;;;;20.83;49.44;100965.09;5112304;28;20560;-75
2022/05/06 06:58:31;;;;;;;17.75;7.88;;;;;;;20.86;49.44;100955.91;5113702;28;20045;-74
2022/05/06 07:00:58;;;;;;;11.63;6.97;;;;;;;21.03;49.14;100978.53;5114083;28;20135;-72
2022/05/06 07:03:25;;;;;;;13.13;7.70;;;;;;;21.32;48.60;100974.03;5107726;28;20127;-74
2022/05/06 07:14:09;;;;;;;12.73;8.00;;;;;;;22.47;47.23;100974.50;5112317;28;20067;-69
2022/05/06 07:16:38;;;;;;;12.43;8.15;;;;;;;22.77;46.31;100965.78;5111521;28;20074;-69
2022/05/06 07:19:05;;;;;;;15.07;8.07;;;;;;;23.17;45.76;100968.81;5109980;28;20779;-70
2022/05/06 07:21:32;;;;;;;12.27;8.10;;;;;;;23.37;45.27;100954.78;5109326;28;20139;-70
2022/05/06 07:23:59;;;;;;;13.57;8.10;;;;;;;23.85;44.69;100978.72;5112288;28;20090;-70
2022/05/06 07:26:27;;;;;;;13.95;8.35;;;;;;;24.04;44.18;100966.69;5113706;28;20126;-70
2022/05/06 07:28:54;;;;;;;15.40;8.30;;;;;;;24.22;43.49;100953.75;5113531;28;20430;-70
2022/05/06 07:31:21;;;;;;;11.60;7.78;;;;;;;24.29;43.39;100933.97;5106053;27;20413;-69
2022/05/06 07:33:48;;;;;;;10.95;7.03;;;;;;;24.90;42.68;100977.66;5109017;27;20071;-70
2022/05/06 07:36:15;;;;;;;10.45;6.32;;;;;;;25.01;42.10;100965.31;5110060;28;20043;-70
2022/05/06 07:38:42;;;;;;;17.75;7.93;;;;;;;25.24;41.80;100981.84;5112001;27;20081;-71
2022/05/06 07:41:08;;;;;;;10.48;6.38;;;;;;;25.27;41.46;100958.22;5106742;28;20134;-70
2022/05/06 07:43:36;;;;;;;12.45;7.75;;;;;;;25.34;40.64;100940.44;5108205;28;20075;-70
2022/05/06 07:46:09;;;;;;;9.30;6.72;;;;;;;25.86;40.68;100970.66;5108176;28;20043;-70
2022/05/06 07:48:37;;;;;;;12.88;6.38;;;;;;;26.12;40.16;100988.00;5106025;28;20052;-70
2022/05/06 07:51:05;;;;;;;11.70;6.35;;;;;;;26.24;39.60;100996.44;5108247;28;20067;-71
2022/05/06 07:53:32;;;;;;;10.57;7.13;;;;;;;26.31;39.30;101000.66;5107993;28;20532;-70
2022/05/06 07:56:00;;;;;;;8.40;6.18;;;;;;;26.44;39.35;100999.28;5108171;27;20574;-70
2022/05/06 07:58:27;;;;;;;7.55;5.32;;;;;;;26.51;38.51;101002.31;5107527;28;20047;-70
2022/05/06 08:00:54;;;;;;;10.65;6.78;;;;;;;26.57;38.34;100980.78;5108313;28;20086;-70
2022/05/06 08:06:07;;;;;;;9.68;5.15;;;;;;;26.91;37.13;100998.19;5109844;28;20047;-71
2022/05/06 08:08:35;;;;;;;11.85;5.28;;;;;;;26.86;36.90;100998.47;5107646;28;20046;-70
2022/05/06 08:11:02;;;;;;;10.75;7.93;;;;;;;27.02;37.49;101004.94;5102318;28;20069;-69
2022/05/06 08:13:29;;;;;;;9.55;7.13;;;;;;;27.18;36.85;101001.97;5109217;28;20097;-71
2022/05/06 08:15:57;;;;;;;7.95;5.80;;;;;;;27.23;36.39;100986.47;5108362;28;20071;-72
2022/05/06 08:18:24;;;;;;;14.65;8.15;;;;;;;27.35;37.00;100966.19;5103723;28;20100;-70
2022/05/06 08:20:52;;;;;;;10.98;5.45;;;;;;;27.49;36.19;100975.03;5110978;28;20522;-70
2022/05/06 08:23:23;;;;;;;13.52;5.50;;;;;;;27.33;35.74;100992.38;5110519;28;20092;-70
2022/05/06 08:25:53;;;;;;;9.60;6.07;;;;;;;27.43;35.29;100990.91;5111916;28;20044;-72
2022/05/06 08:28:22;;;;;;;8.18;5.45;;;;;;;27.38;34.70;100968.28;5110817;28;20130;-71
2022/05/06 08:30:49;;;;;;;12.02;5.50;;;;;;;27.58;34.77;100984.16;5112044;28;20559;-70
2022/05/06 08:33:17;;;;;;;7.68;4.65;;;;;;;27.58;34.55;100971.88;5107041;28;20055;-72
2022/05/06 08:35:45;;;;;;;12.90;5.15;;;;;;;27.54;34.41;100989.03;5108052;28;20046;-72
2022/05/06 08:38:13;;;;;;;8.15;4.47;;;;;;;27.69;34.09;100998.66;5112045;27;20130;-71
2022/05/06 08:40:40;;;;;;;5.57;3.67;;;;;;;27.51;33.58;100981.19;5112639;27;20071;-72
2022/05/06 08:43:07;;;;;;;8.98;4.60;;;;;;;27.26;33.55;100985.72;5114747;27;20082;-71
2022/05/06 08:51:07;;;;;;;8.48;3.83;;;;;;;27.62;33.20;100981.34;5114045;27;20505;-72
2022/05/06 08:53:37;;;;;;;6.45;4.43;;;;;;;27.68;33.04;100982.69;5111552;27;20086;-70
2022/05/06 08:56:05;;;;;;;;;;;;;;;27.57;33.96;100991.13;5106717;28;20051;-71
2022/05/06 08:58:40;;;;;;;5.88;3.70;;;;;;;27.99;33.22;100981.50;5108109;27;20010;-71
2022/05/06 09:01:12;;;;;;;9.95;4.80;;;;;;;28.33;32.92;100970.03;5112302;27;20043;-70
2022/05/06 09:03:44;;;;;;;7.72;2.88;;;;;;;28.89;32.35;100994.94;5110099;28;20077;-71
2022/05/06 09:06:22;;;;;;;5.30;3.75;;;;;;;29.22;31.70;100993.19;5111371;28;20051;-70
2022/05/06 09:08:51;;;;;;;8.60;5.32;;;;;;;29.40;31.15;100979.78;5112590;28;20130;-71
2022/05/06 09:17:25;;;;;;;8.48;4.20;;;;;;;29.97;30.98;100987.97;5107566;27;20409;-71
2022/05/06 09:19:54;;;;;;;5.97;3.70;;;;;;;30.30;30.08;101001.34;5103114;27;20048;-72
2022/05/06 09:22:27;;;;;;;6.53;3.88;;;;;;;30.11;30.10;100947.72;5112763;27;20134;-71
2022/05/06 09:24:54;;;;;;;6.45;4.38;;;;;;;30.57;30.07;100995.28;5114598;27;20142;-70
2022/05/06 09:27:23;;;;;;;3.90;2.83;;;;;;;30.50;29.58;100975.09;5111576;27;20104;-73
2022/05/06 09:29:54;;;;;;;4.95;3.35;;;;;;;30.68;29.41;100984.59;5111568;28;20043;-72
2022/05/06 09:32:30;;;;;;;6.93;4.07;;;;;;;30.92;29.28;100978.06;5109932;28;20130;-71
2022/05/06 09:35:07;;;;;;;5.35;3.67;;;;;;;31.17;28.84;100980.13;5110147;27;20529;-70
2022/05/06 09:37:34;;;;;;;6.03;3.45;;;;;;;31.33;28.88;101000.78;5114535;27;20577;-70
2022/05/06 09:40:14;;;;;;;6.15;3.47;;;;;;;31.47;29.03;100990.47;5114041;27;20115;-71
2022/05/06 09:42:43;;;;;;;6.13;4.03;;;;;;;31.60;28.78;100980.16;5095091;28;20075;-71
2022/05/06 09:45:13;;;;;;;5.85;2.78;;;;;;;31.50;27.88;100981.00;5111888;27;20093;-71
2022/05/06 09:47:40;;;;;;;7.57;3.50;;;;;;;31.45;28.26;100975.63;5112870;28;20051;-70
2022/05/06 09:50:09;;;;;;;27.90;5.18;;;;;;;31.53;27.88;100980.16;5147864;27;20142;-71
2022/05/06 09:52:36;;;;;;;4.68;3.13;;;;;;;31.70;27.90;100992.91;5115293;27;20079;-79
2022/05/06 09:55:06;;;;;;;8.57;3.25;;;;;;;31.81;27.14;100991.66;5120326;27;20040;-81
2022/05/06 09:57:36;;;;;;;10.90;4.22;;;;;;;31.91;27.89;100972.69;5119866;28;20180;-79
2022/05/06 10:00:05;;;;;;;12.02;3.70;;;;;;;32.15;27.38;100985.38;5113552;27;20094;-79
2022/05/06 10:02:32;;;;;;;;;;;;;;;32.09;28.63;100978.38;5119958;27;20513;-78
2022/05/06 10:04:59;;;;;;;6.05;2.97;;;;;;;32.36;27.30;100974.97;5121300;27;19941;-83
2022/05/06 10:07:27;;;;;;;4.95;2.80;;;;;;;32.68;27.39;100989.28;5123858;27;20043;-81
2022/05/06 10:10:05;;;;;;;6.55;3.50;;;;;;;32.54;27.29;100952.59;5118971;27;20086;-81
2022/05/06 10:12:39;;;;;;;6.18;2.80;;;;;;;32.80;26.97;100969.38;5107556;28;20120;-85
2022/05/06 10:15:08;;;;;;;5.55;3.10;;;;;;;33.16;27.06;100985.66;5114741;27;20047;-80
2022/05/06 10:17:49;;;;;;;10.15;3.92;;;;;;;33.28;26.78;100979.38;5111946;27;20073;-82
2022/05/06 10:20:41;;;;;;;9.35;4.50;;;;;;;33.34;27.20;100982.63;5118344;27;20043;-87
2022/05/06 10:23:12;;;;;;;8.23;5.47;;;;;;;33.15;27.22;100941.44;5107826;27;20071;-82
2022/05/06 10:25:42;;;;;;;15.02;7.57;;;;;;;33.47;27.83;100983.72;5109695;28;20130;-83
2022/05/06 10:34:12;;;;;;;13.57;7.88;;;;;;;32.66;28.89;100959.97;5107333;28;20059;-76
2022/05/06 10:36:53;;;;;;;13.70;9.13;;;;;;;32.54;29.40;100941.03;5112970;28;20078;-76
2022/05/06 10:39:20;;;;;;;14.93;9.35;;;;;;;32.74;29.27;100971.06;5107298;27;20478;-76
2022/05/06 10:42:03;;;;;;;13.60;8.55;;;;;;;32.54;29.68;100959.19;5111614;27;20134;-78
2022/05/06 10:44:34;;;;;;;19.45;8.85;;;;;;;32.31;30.04;100959.72;5109307;27;20097;-77
2022/05/06 10:47:22;;;;;;;23.25;9.90;;;;;;;32.03;30.23;100933.84;5104134;28;20489;-77
2022/05/06 10:49:52;;;;;;;;;;;;;;;31.73;31.20;100960.34;5101709;27;20079;-77
2022/05/06 10:52:24;;;;;;;17.92;9.20;;;;;;;31.85;30.71;100960.69;5111868;28;19973;-77
2022/05/06 10:54:54;;;;;;;13.90;8.57;;;;;;;31.95;30.74;100966.88;5110564;27;20075;-77
2022/05/06 10:57:24;;;;;;;17.63;8.70;;;;;;;32.00;30.80;100963.56;5109119;28;20195;-76
2022/05/06 10:59:56;;;;;;;16.27;7.90;;;;;;;32.07;30.91;100970.16;5110457;27;20130;-77
2022/05/06 11:02:25;;;;;;;15.85;8.52;;;;;;;31.89;31.20;100945.44;5109900;28;20105;-78
2022/05/06 11:04:59;;;;;;;15.43;8.68;;;;;;;32.05;30.47;100949.50;5105801;27;20407;-77
2022/05/06 11:07:31;;;;;;;14.15;9.32;;;;;;;32.05;31.10;100940.84;5137862;27;20117;-78
2022/05/06 11:09:59;;;;;;;15.60;9.18;;;;;;;32.38;30.74;100958.03;5110325;28;20130;-78
2022/05/06 11:12:38;;;;;;;11.88;7.82;;;;;;;32.28;30.57;100953.97;5109098;27;20097;-77
2022/05/06 11:15:10;;;;;;;15.15;8.55;;;;;;;32.42;30.70;100947.31;5109625;27;20047;-77
2022/05/06 11:17:37;;;;;;;12.57;9.50;;;;;;;32.45;29.96;100961.75;5110681;28;20090;-77
2022/05/06 11:20:13;;;;;;;14.65;8.68;;;;;;;32.25;30.55;100946.94;5110515;28;20051;-77
2022/05/06 11:22:50;;;;;;;12.95;7.72;;;;;;;32.39;30.34;100954.72;5111208;27;20123;-77
2022/05/06 11:25:17;;;;;;;14.52;8.65;;;;;;;32.46;30.12;100966.28;5109463;27;20075;-77
2022/05/06 11:27:44;;;;;;;12.50;7.78;;;;;;;32.37;30.83;100953.50;5114173;27;20559;-77
2022/05/06 11:30:17;;;;;;;15.93;9.32;;;;;;;32.34;30.32;100937.81;5105969;27;20146;-78
2022/05/06 11:32:49;;;;;;;13.77;8.88;;;;;;;32.24;30.87;100938.69;5113489;28;20075;-78
2022/05/06 11:35:30;;;;;;;18.85;9.48;;;;;;;32.39;30.30;100951.00;5111314;27;20075;-78
2022/05/06 11:37:57;;;;;;;13.52;9.23;;;;;;;32.28;30.21;100925.88;5106728;28;20058;-78
2022/05/06 11:42:53;;;;;;;12.88;8.20;;;;;;;32.75;30.29;100946.69;5101002;28;20047;-78
2022/05/06 11:48:06;;;;;;;15.65;9.07;;;;;;;32.97;29.76;100950.28;5108466;28;20097;-77
2022/05/06 11:50:37;;;;;;;11.75;8.15;;;;;;;33.09;29.57;100937.34;5110798;28;20124;-77
2022/05/06 11:53:08;;;;;;;18.13;9.15;;;;;;;33.09;29.38;100919.97;5104857;28;20075;-78
2022/05/06 11:55:36;;;;;;;16.73;8.90;;;;;;;33.25;29.43;100942.59;5106849;28;20085;-78
2022/05/06 11:58:09;;;;;;;15.30;9.35;;;;;;;33.12;28.93;100907.56;5109460;28;20079;-77
2022/05/06 12:00:36;;;;;;;12.20;8.40;;;;;;;33.63;28.66;100925.28;5109744;28;20544;-77
2022/05/06 12:03:06;;;;;;;17.75;9.63;;;;;;;34.26;27.92;100933.63;5109394;28;20448;-77
2022/05/06 12:05:34;;;;;;;13.93;9.25;;;;;;;34.30;27.34;100920.75;5110277;28;20083;-77
2022/05/06 12:08:01;;;;;;;16.07;9.83;;;;;;;34.53;27.07;100928.75;5108709;28;20131;-78
2022/05/06 12:10:32;;;;;;;14.95;9.48;;;;;;;35.11;26.37;100940.25;5112207;27;20126;-77
2022/05/06 12:13:07;;;;;;;13.52;9.73;;;;;;;35.53;25.98;100935.81;5114570;28;20126;-77
2022/05/06 12:15:38;;;;;;;11.25;7.72;;;;;;;36.04;25.58;100935.66;5112548;28;20047;-78
2022/05/06 12:18:07;;;;;;;20.65;11.20;;;;;;;36.25;24.78;100934.38;5115080;27;20130;-77
2022/05/06 12:20:46;;;;;;;14.40;9.20;;;;;;;36.71;24.28;100926.66;5116187;27;20047;-77